Time;durP1;ratioP1;P1;durP2;ratioP2;P2;SDS_P1;SDS_P2;PMS_P1;PMS_P2;Temp;Humidity;BMP_temperature;BMP_pressure;BME280_temperature;BME280_humidity;BME280_pressure;Samples;Min_cycle;Max_cycle;Signal;HPM_P1;HPM_P2
2023/12/17 00:01:46;;;;;;;26.53;13.57;;;;;;;;;;2612255;54;20434;-70
2023/12/17 00:04:12;;;;;;;22.37;15.13;;;;;;;;;;2612573;47;20435;-70
2023/12/17 00:06:40;;;;;;;19.20;12.17;;;;;;;;;;2612369;54;20406;-81
2023/12/17 00:09:06;;;;;;;19.03;13.30;;;;;;;;;;2613536;46;20479;-79
2023/12/17 00:11:39;;;;;;;22.47;10.63;;;;;;;;;;2613769;54;20429;-80
2023/12/17 00:14:05;;;;;;;17.90;11.93;;;;;;;;;;2612981;47;20452;-80
2023/12/17 00:16:31;;;;;;;24.27;13.50;;;;;;;;;;2612057;54;20452;-81
2023/12/17 00:18:57;;;;;;;16.77;10.73;;;;;;;;;;2613275;54;20454;-81
2023/12/17 00:21:23;;;;;;;23.97;13.70;;;;;;;;;;2613161;54;20432;-81
2023/12/17 00:23:49;;;;;;;22.17;12.03;;;;;;;;;;2613265;54;20451;-81
2023/12/17 00:26:15;;;;;;;18.90;11.00;;;;;;;;;;2612638;54;20410;-80
2023/12/17 00:28:41;;;;;;;21.10;12.90;;;;;;;;;;2612805;54;20471;-80
2023/12/17 00:31:07;;;;;;;20.37;11.30;;;;;;;;;;2612406;54;20911;-81
2023/12/17 00:33:33;;;;;;;25.37;12.70;;;;;;;;;;2613900;39;20832;-80
2023/12/17 00:35:59;;;;;;;22.73;15.70;;;;;;;;;;2612987;54;20452;-81
2023/12/17 00:38:25;;;;;;;23.67;13.17;;;;;;;;;;2612432;54;20422;-76
2023/12/17 00:40:51;;;;;;;18.60;12.87;;;;;;;;;;2612017;54;20421;-75
2023/12/17 00:43:17;;;;;;;25.00;11.97;;;;;;;;;;2612555;54;20437;-77
2023/12/17 00:45:43;;;;;;;20.60;13.23;;;;;;;;;;2612800;54;20520;-76
2023/12/17 00:48:09;;;;;;;19.73;13.30;;;;;;;;;;2612974;54;20561;-76
2023/12/17 00:50:35;;;;;;;15.87;9.67;;;;;;;;;;2612683;46;20494;-75
2023/12/17 00:53:02;;;;;;;21.53;15.50;;;;;;;;;;2614997;39;21206;-76
2023/12/17 00:55:28;;;;;;;26.13;15.57;;;;;;;;;;2612970;47;20438;-76
2023/12/17 00:57:54;;;;;;;13.67;9.87;;;;;;;;;;2613136;49;20443;-76
2023/12/17 01:00:20;;;;;;;20.37;13.50;;;;;;;;;;2612702;54;20429;-79
2023/12/17 01:02:46;;;;;;;18.97;11.87;;;;;;;;;;2613714;54;20976;-77
2023/12/17 01:05:12;;;;;;;19.57;11.57;;;;;;;;;;2612650;54;20435;-79
2023/12/17 01:07:38;;;;;;;22.87;13.73;;;;;;;;;;2612719;54;20522;-77
2023/12/17 01:10:04;;;;;;;21.50;12.20;;;;;;;;;;2612598;54;20451;-77
2023/12/17 01:12:30;;;;;;;21.70;14.63;;;;;;;;;;2613223;54;20498;-77
2023/12/17 01:14:56;;;;;;;22.27;13.20;;;;;;;;;;2613890;54;20441;-77
2023/12/17 01:17:22;;;;;;;20.60;13.47;;;;;;;;;;2613677;54;20561;-83
2023/12/17 01:19:48;;;;;;;16.13;10.63;;;;;;;;;;2614672;46;20445;-84
2023/12/17 01:22:14;;;;;;;31.70;12.30;;;;;;;;;;2614875;39;20813;-81
2023/12/17 01:24:41;;;;;;;18.73;12.30;;;;;;;;;;2613897;54;20441;-83
2023/12/17 01:27:07;;;;;;;24.43;13.90;;;;;;;;;;2615069;54;20417;-81
2023/12/17 01:29:33;;;;;;;16.80;12.00;;;;;;;;;;2614337;39;20809;-83
2023/12/17 01:31:59;;;;;;;18.37;12.93;;;;;;;;;;2614609;54;20515;-82
2023/12/17 01:34:25;;;;;;;22.87;14.60;;;;;;;;;;2615158;39;20864;-83
2023/12/17 01:36:52;;;;;;;20.30;13.50;;;;;;;;;;2614590;47;20507;-83
2023/12/17 01:39:18;;;;;;;22.83;11.97;;;;;;;;;;2614325;54;20437;-83
2023/12/17 01:41:47;;;;;;;23.70;15.63;;;;;;;;;;2615083;54;20617;-82
2023/12/17 01:44:13;;;;;;;28.97;15.37;;;;;;;;;;2614622;39;20912;-84
2023/12/17 01:46:40;;;;;;;24.40;13.30;;;;;;;;;;2614626;46;20528;-81
2023/12/17 01:49:06;;;;;;;24.97;13.57;;;;;;;;;;2613482;54;20434;-81
2023/12/17 01:51:33;;;;;;;21.50;13.73;;;;;;;;;;2614507;39;20808;-81
2023/12/17 01:54:02;;;;;;;21.77;13.30;;;;;;;;;;2614164;54;20460;-81
2023/12/17 01:56:29;;;;;;;16.67;10.53;;;;;;;;;;2614888;31;20915;-80
2023/12/17 01:58:55;;;;;;;20.10;14.23;;;;;;;;;;2613845;54;20525;-80
2023/12/17 02:01:21;;;;;;;21.90;14.20;;;;;;;;;;2613337;54;20445;-81
2023/12/17 02:03:47;;;;;;;20.60;14.77;;;;;;;;;;2613791;54;20417;-81
2023/12/17 02:06:13;;;;;;;26.23;13.43;;;;;;;;;;2613163;54;20422;-79
2023/12/17 02:08:39;;;;;;;22.17;13.33;;;;;;;;;;2613872;54;20425;-80
2023/12/17 02:11:06;;;;;;;20.37;13.80;;;;;;;;;;2612977;54;20429;-80
2023/12/17 02:13:33;;;;;;;17.10;12.43;;;;;;;;;;2612548;54;20419;-81
2023/12/17 02:15:59;;;;;;;19.10;14.00;;;;;;;;;;2613989;54;20461;-79
2023/12/17 02:18:25;;;;;;;23.43;12.70;;;;;;;;;;2613526;54;20507;-78
2023/12/17 02:20:51;;;;;;;22.57;13.73;;;;;;;;;;2613376;54;20974;-80
2023/12/17 02:23:17;;;;;;;23.90;14.50;;;;;;;;;;2613473;54;20401;-80
2023/12/17 02:25:43;;;;;;;21.53;11.60;;;;;;;;;;2613921;54;20971;-80
2023/12/17 02:28:09;;;;;;;22.50;14.30;;;;;;;;;;2613109;47;20427;-77
2023/12/17 02:30:36;;;;;;;22.87;12.77;;;;;;;;;;2613524;54;20549;-78
2023/12/17 02:33:02;;;;;;;23.27;14.27;;;;;;;;;;2613876;54;20400;-79
2023/12/17 02:35:28;;;;;;;15.47;8.40;;;;;;;;;;2613389;39;20845;-77
2023/12/17 02:37:54;;;;;;;15.93;11.20;;;;;;;;;;2612812;54;20505;-75
2023/12/17 02:40:20;;;;;;;20.00;13.57;;;;;;;;;;2613144;54;20821;-77
2023/12/17 02:42:46;;;;;;;22.73;13.77;;;;;;;;;;2612046;47;20425;-77
2023/12/17 02:45:12;;;;;;;19.47;13.27;;;;;;;;;;2613641;54;20413;-77
2023/12/17 02:47:38;;;;;;;22.70;14.23;;;;;;;;;;2613646;54;20423;-77
2023/12/17 02:50:05;;;;;;;17.17;11.80;;;;;;;;;;2613235;54;20542;-77
2023/12/17 02:52:31;;;;;;;18.23;11.97;;;;;;;;;;2613379;54;20421;-77
2023/12/17 02:54:57;;;;;;;21.30;13.33;;;;;;;;;;2613904;39;20869;-76
2023/12/17 02:57:25;;;;;;;20.03;12.47;;;;;;;;;;2612190;47;20417;-77
2023/12/17 02:59:54;;;;;;;20.80;14.30;;;;;;;;;;2612988;54;20429;-77
2023/12/17 03:02:21;;;;;;;22.00;12.40;;;;;;;;;;2611984;54;21074;-77
2023/12/17 03:04:47;;;;;;;18.37;10.90;;;;;;;;;;2613805;54;20406;-77
2023/12/17 03:07:13;;;;;;;21.80;13.83;;;;;;;;;;2612902;39;20833;-77
2023/12/17 03:09:39;;;;;;;22.60;13.40;;;;;;;;;;2612852;47;20455;-76
2023/12/17 03:12:06;;;;;;;14.00;10.83;;;;;;;;;;2613351;54;20401;-76
2023/12/17 03:14:32;;;;;;;20.97;12.70;;;;;;;;;;2612314;54;20424;-77
2023/12/17 03:16:58;;;;;;;20.83;12.40;;;;;;;;;;2612381;54;20450;-77
2023/12/17 03:19:24;;;;;;;16.67;10.67;;;;;;;;;;2612409;54;20417;-76
2023/12/17 03:21:50;;;;;;;23.20;13.03;;;;;;;;;;2612167;47;20442;-75
2023/12/17 03:24:16;;;;;;;18.30;11.60;;;;;;;;;;2612718;54;20401;-76
2023/12/17 03:26:42;;;;;;;22.73;14.90;;;;;;;;;;2612352;54;20521;-77
2023/12/17 03:29:08;;;;;;;18.00;14.20;;;;;;;;;;2611958;54;20429;-76
2023/12/17 03:31:34;;;;;;;18.57;10.67;;;;;;;;;;2611415;54;20397;-77
2023/12/17 03:34:01;;;;;;;18.87;13.40;;;;;;;;;;2612667;54;20457;-76
2023/12/17 03:36:27;;;;;;;22.00;13.87;;;;;;;;;;2613009;54;20519;-80
2023/12/17 03:38:54;;;;;;;23.20;15.10;;;;;;;;;;2611966;54;20521;-76
2023/12/17 03:41:23;;;;;;;21.20;11.23;;;;;;;;;;2612700;39;20901;-75
2023/12/17 03:43:50;;;;;;;23.27;14.10;;;;;;;;;;2612158;54;20430;-77
2023/12/17 03:46:16;;;;;;;18.37;12.83;;;;;;;;;;2612881;31;20908;-77
2023/12/17 03:48:42;;;;;;;21.40;11.37;;;;;;;;;;2612081;54;20529;-76
2023/12/17 03:51:08;;;;;;;22.47;12.70;;;;;;;;;;2612289;47;20435;-76
2023/12/17 03:53:34;;;;;;;23.63;15.00;;;;;;;;;;2611945;54;20427;-76
2023/12/17 03:56:00;;;;;;;20.57;14.60;;;;;;;;;;2611843;54;20423;-77
2023/12/17 03:58:27;;;;;;;25.70;14.43;;;;;;;;;;2611532;54;20437;-77
2023/12/17 04:00:53;;;;;;;22.17;13.23;;;;;;;;;;2611189;54;20420;-76
2023/12/17 04:03:20;;;;;;;23.30;12.40;;;;;;;;;;2612014;54;21282;-77
2023/12/17 04:05:45;;;;;;;20.93;11.30;;;;;;;;;;2612071;54;20607;-78
2023/12/17 04:08:11;;;;;;;19.40;13.50;;;;;;;;;;2612494;39;20845;-77
2023/12/17 04:10:37;;;;;;;22.53;14.10;;;;;;;;;;2611376;54;20431;-77
2023/12/17 04:13:04;;;;;;;24.13;15.27;;;;;;;;;;2611949;54;20400;-76
2023/12/17 04:15:30;;;;;;;21.30;13.80;;;;;;;;;;2612558;47;20535;-76
2023/12/17 04:17:56;;;;;;;22.73;14.00;;;;;;;;;;2612204;54;20496;-77
2023/12/17 04:20:22;;;;;;;21.53;12.73;;;;;;;;;;2612144;54;20437;-76
2023/12/17 04:22:48;;;;;;;21.50;12.57;;;;;;;;;;2611633;54;20419;-77
2023/12/17 04:25:14;;;;;;;21.13;14.47;;;;;;;;;;2611709;54;21030;-78
2023/12/17 04:27:41;;;;;;;25.77;15.87;;;;;;;;;;2612513;54;20434;-78
2023/12/17 04:30:07;;;;;;;17.70;11.73;;;;;;;;;;2611984;54;20436;-76
2023/12/17 04:32:33;;;;;;;25.80;13.77;;;;;;;;;;2612236;47;20422;-77
2023/12/17 04:34:59;;;;;;;20.37;13.97;;;;;;;;;;2612143;54;20424;-77
2023/12/17 04:37:25;;;;;;;23.63;14.50;;;;;;;;;;2611301;47;20496;-76
2023/12/17 04:39:51;;;;;;;23.50;13.20;;;;;;;;;;2612564;39;20788;-77
2023/12/17 04:42:17;;;;;;;21.40;12.83;;;;;;;;;;2612664;54;20425;-77
2023/12/17 04:44:43;;;;;;;23.37;14.50;;;;;;;;;;2611953;54;20406;-76
2023/12/17 04:47:09;;;;;;;25.37;14.90;;;;;;;;;;2612106;54;20412;-75
2023/12/17 04:49:36;;;;;;;21.30;13.90;;;;;;;;;;2611828;54;20512;-76
2023/12/17 04:52:02;;;;;;;20.57;13.60;;;;;;;;;;2611314;54;20446;-75
2023/12/17 04:54:28;;;;;;;17.40;10.87;;;;;;;;;;2612307;54;20381;-76
2023/12/17 04:56:55;;;;;;;25.43;15.30;;;;;;;;;;2611878;54;20525;-75
2023/12/17 04:59:21;;;;;;;21.73;12.00;;;;;;;;;;2611419;54;20419;-75
2023/12/17 05:01:47;;;;;;;22.27;13.90;;;;;;;;;;2612095;39;20507;-76
2023/12/17 05:04:14;;;;;;;24.17;16.97;;;;;;;;;;2611746;54;20439;-74
2023/12/17 05:06:40;;;;;;;18.73;11.87;;;;;;;;;;2611896;54;20421;-74
2023/12/17 05:09:06;;;;;;;18.47;12.73;;;;;;;;;;2611951;54;20436;-75
2023/12/17 05:11:32;;;;;;;23.23;14.97;;;;;;;;;;2611743;54;20424;-75
2023/12/17 05:13:58;;;;;;;23.83;15.67;;;;;;;;;;2611640;54;20428;-76
2023/12/17 05:16:24;;;;;;;21.20;13.53;;;;;;;;;;2611672;54;20413;-77
2023/12/17 05:18:50;;;;;;;22.23;12.40;;;;;;;;;;2611212;54;21124;-72
2023/12/17 05:21:16;;;;;;;23.60;14.03;;;;;;;;;;2612032;47;20456;-73
2023/12/17 05:23:43;;;;;;;20.97;12.73;;;;;;;;;;2610818;54;20456;-73
2023/12/17 05:26:09;;;;;;;18.03;12.83;;;;;;;;;;2612117;54;20443;-72
2023/12/17 05:28:37;;;;;;;20.13;13.90;;;;;;;;;;2611574;47;21016;-72
2023/12/17 05:31:03;;;;;;;22.93;14.53;;;;;;;;;;2611532;54;20432;-72
2023/12/17 05:33:29;;;;;;;18.20;10.97;;;;;;;;;;2612478;54;21037;-73
2023/12/17 05:35:55;;;;;;;21.20;13.50;;;;;;;;;;2612511;51;20435;-71
2023/12/17 05:38:21;;;;;;;18.87;11.80;;;;;;;;;;2612201;54;20418;-72
2023/12/17 05:40:47;;;;;;;24.03;14.80;;;;;;;;;;2611628;47;20455;-71
2023/12/17 05:43:13;;;;;;;20.67;12.87;;;;;;;;;;2611192;47;21060;-73
2023/12/17 05:45:39;;;;;;;19.73;12.57;;;;;;;;;;2612376;54;20452;-70
2023/12/17 05:48:08;;;;;;;28.27;15.33;;;;;;;;;;2612655;54;20458;-71
2023/12/17 05:50:34;;;;;;;21.03;14.23;;;;;;;;;;2612074;54;20468;-73
2023/12/17 05:53:00;;;;;;;23.37;14.60;;;;;;;;;;2612359;54;20464;-71
2023/12/17 05:55:26;;;;;;;18.53;11.80;;;;;;;;;;2612123;54;20541;-71
2023/12/17 05:57:52;;;;;;;19.60;12.47;;;;;;;;;;2612625;54;20528;-70
2023/12/17 06:00:18;;;;;;;18.80;12.70;;;;;;;;;;2611949;54;20423;-69
2023/12/17 06:02:44;;;;;;;19.77;11.83;;;;;;;;;;2611713;54;20488;-70
2023/12/17 06:05:11;;;;;;;22.33;13.03;;;;;;;;;;2612348;54;20405;-70
2023/12/17 06:07:37;;;;;;;15.40;10.07;;;;;;;;;;2612575;54;20476;-69
2023/12/17 06:10:03;;;;;;;19.03;12.67;;;;;;;;;;2611464;54;20973;-71
2023/12/17 06:12:29;;;;;;;17.53;11.70;;;;;;;;;;2612402;54;20417;-70
2023/12/17 06:14:55;;;;;;;18.57;12.20;;;;;;;;;;2612310;39;21020;-71
2023/12/17 06:17:21;;;;;;;15.90;11.00;;;;;;;;;;2612318;46;20484;-70
2023/12/17 06:19:48;;;;;;;21.77;12.37;;;;;;;;;;2612041;54;20433;-71
2023/12/17 06:22:16;;;;;;;21.10;13.00;;;;;;;;;;2612392;54;20406;-70
2023/12/17 06:24:42;;;;;;;21.80;12.17;;;;;;;;;;2612377;47;20436;-70
2023/12/17 06:27:15;;;;;;;19.30;12.10;;;;;;;;;;2612487;54;20501;-70
2023/12/17 06:29:41;;;;;;;21.50;12.00;;;;;;;;;;2612488;54;20499;-70
2023/12/17 06:32:07;;;;;;;17.27;10.67;;;;;;;;;;2611968;54;20411;-69
2023/12/17 06:34:34;;;;;;;18.73;12.43;;;;;;;;;;2612589;47;20561;-70
2023/12/17 06:37:00;;;;;;;24.97;14.20;;;;;;;;;;2612319;54;20551;-70
2023/12/17 06:39:26;;;;;;;24.53;12.50;;;;;;;;;;2612954;54;20421;-70
2023/12/17 06:41:52;;;;;;;24.40;12.93;;;;;;;;;;2612552;54;20428;-70
2023/12/17 06:44:18;;;;;;;15.77;9.40;;;;;;;;;;2612318;47;20459;-70
2023/12/17 06:46:44;;;;;;;17.37;11.70;;;;;;;;;;2611174;54;20426;-69
2023/12/17 06:49:10;;;;;;;22.10;12.50;;;;;;;;;;2611558;54;20433;-69
2023/12/17 06:51:40;;;;;;;17.70;12.50;;;;;;;;;;2612424;54;20440;-70
2023/12/17 06:54:07;;;;;;;18.60;11.80;;;;;;;;;;2611884;54;20995;-69
2023/12/17 06:56:33;;;;;;;16.30;10.23;;;;;;;;;;2611818;54;20472;-70
2023/12/17 06:58:59;;;;;;;18.10;12.00;;;;;;;;;;2611632;54;20425;-71
2023/12/17 07:01:25;;;;;;;18.50;11.90;;;;;;;;;;2610324;54;20439;-70
2023/12/17 07:03:51;;;;;;;17.70;10.93;;;;;;;;;;2611877;54;20516;-71
2023/12/17 07:06:17;;;;;;;17.50;11.10;;;;;;;;;;2611929;47;21445;-71
2023/12/17 07:08:43;;;;;;;20.17;12.10;;;;;;;;;;2612574;54;20468;-75
2023/12/17 07:11:10;;;;;;;18.40;11.60;;;;;;;;;;2611635;54;20432;-77
2023/12/17 07:13:37;;;;;;;13.17;8.87;;;;;;;;;;2612225;54;20431;-76
2023/12/17 07:16:03;;;;;;;16.87;10.73;;;;;;;;;;2611433;54;20436;-76
2023/12/17 07:18:29;;;;;;;13.90;10.50;;;;;;;;;;2612361;54;20453;-75
2023/12/17 07:20:55;;;;;;;21.80;13.47;;;;;;;;;;2611611;39;20607;-75
2023/12/17 07:23:25;;;;;;;16.30;10.93;;;;;;;;;;2611308;54;20415;-75
2023/12/17 07:25:52;;;;;;;16.20;9.13;;;;;;;;;;2612137;54;21147;-75
2023/12/17 07:28:18;;;;;;;17.07;10.73;;;;;;;;;;2611987;54;20524;-75
2023/12/17 07:30:44;;;;;;;17.53;11.17;;;;;;;;;;2612153;54;20409;-75
2023/12/17 07:33:10;;;;;;;16.43;7.83;;;;;;;;;;2612591;39;20881;-75
2023/12/17 07:35:36;;;;;;;13.47;8.03;;;;;;;;;;2611715;47;20447;-75
2023/12/17 07:38:02;;;;;;;21.10;8.00;;;;;;;;;;2611984;54;20980;-75
2023/12/17 07:40:28;;;;;;;19.70;11.27;;;;;;;;;;2611766;54;22058;-75
2023/12/17 07:42:54;;;;;;;18.03;11.50;;;;;;;;;;2611698;54;20435;-75
2023/12/17 07:45:20;;;;;;;15.37;9.97;;;;;;;;;;2611544;54;20431;-75
2023/12/17 07:47:46;;;;;;;16.00;9.97;;;;;;;;;;2613083;54;20424;-75
2023/12/17 07:50:13;;;;;;;15.20;10.30;;;;;;;;;;2612344;54;20420;-74
2023/12/17 07:52:40;;;;;;;18.13;11.73;;;;;;;;;;2612091;47;20429;-75
2023/12/17 07:55:06;;;;;;;15.93;11.70;;;;;;;;;;2611824;54;20456;-75
2023/12/17 07:57:33;;;;;;;18.60;11.13;;;;;;;;;;2611606;54;20412;-75
2023/12/17 07:59:59;;;;;;;16.73;9.23;;;;;;;;;;2611100;51;20427;-75
2023/12/17 08:02:26;;;;;;;15.43;9.80;;;;;;;;;;2612104;54;20421;-75
2023/12/17 08:04:52;;;;;;;18.07;11.00;;;;;;;;;;2611393;54;20412;-75
2023/12/17 08:07:18;;;;;;;15.10;10.77;;;;;;;;;;2611323;47;20432;-75
2023/12/17 08:09:45;;;;;;;13.33;7.83;;;;;;;;;;2612416;47;20428;-75
2023/12/17 08:12:11;;;;;;;13.13;9.50;;;;;;;;;;2611936;54;20471;-75
2023/12/17 08:14:37;;;;;;;15.97;8.93;;;;;;;;;;2612624;39;20835;-76
2023/12/17 08:17:03;;;;;;;15.60;10.00;;;;;;;;;;2612144;54;20841;-83
2023/12/17 08:19:29;;;;;;;11.43;7.50;;;;;;;;;;2612654;54;20420;-82
2023/12/17 08:21:55;;;;;;;20.70;10.67;;;;;;;;;;2613366;54;20452;-84
2023/12/17 08:24:21;;;;;;;12.97;9.37;;;;;;;;;;2612821;54;20951;-82
2023/12/17 08:26:47;;;;;;;13.07;8.70;;;;;;;;;;2612516;54;20435;-82
2023/12/17 08:29:13;;;;;;;14.30;7.90;;;;;;;;;;2612021;39;20785;-82
2023/12/17 08:31:44;;;;;;;11.60;6.87;;;;;;;;;;2613192;54;20395;-83
2023/12/17 08:34:11;;;;;;;11.10;7.13;;;;;;;;;;2613220;47;20424;-82
2023/12/17 08:36:41;;;;;;;11.40;7.03;;;;;;;;;;2612523;54;20407;-83
2023/12/17 08:39:07;;;;;;;10.37;7.33;;;;;;;;;;2613367;54;20410;-84
2023/12/17 08:41:33;;;;;;;7.47;5.80;;;;;;;;;;2614211;54;20419;-83
2023/12/17 08:44:00;;;;;;;6.80;4.33;;;;;;;;;;2613215;54;21046;-82
2023/12/17 08:46:26;;;;;;;7.70;5.73;;;;;;;;;;2613635;54;20479;-73
2023/12/17 08:48:52;;;;;;;8.60;6.57;;;;;;;;;;2612404;54;21074;-81
2023/12/17 08:51:18;;;;;;;9.87;4.90;;;;;;;;;;2612130;54;20427;-80
2023/12/17 08:53:44;;;;;;;7.33;5.20;;;;;;;;;;2612948;54;20403;-81
2023/12/17 08:56:10;;;;;;;9.17;5.33;;;;;;;;;;2613201;39;20991;-81
2023/12/17 08:58:36;;;;;;;5.43;3.60;;;;;;;;;;2612049;54;20412;-81
2023/12/17 09:01:02;;;;;;;6.93;5.53;;;;;;;;;;2612455;54;20470;-81
2023/12/17 09:03:28;;;;;;;3.97;2.60;;;;;;;;;;2612176;51;20441;-79
2023/12/17 09:05:54;;;;;;;7.53;5.57;;;;;;;;;;2612492;54;20456;-80
2023/12/17 09:08:21;;;;;;;9.77;6.33;;;;;;;;;;2613379;47;20425;-80
2023/12/17 09:10:47;;;;;;;5.63;3.60;;;;;;;;;;2612596;54;21133;-80
2023/12/17 09:13:14;;;;;;;8.63;5.30;;;;;;;;;;2613256;54;20419;-81
2023/12/17 09:15:40;;;;;;;6.50;4.80;;;;;;;;;;2613574;54;20428;-79
2023/12/17 09:18:07;;;;;;;8.57;5.23;;;;;;;;;;2614070;46;20563;-80
2023/12/17 09:20:33;;;;;;;6.13;4.57;;;;;;;;;;2613310;54;20423;-80
2023/12/17 09:22:59;;;;;;;9.83;6.63;;;;;;;;;;2613460;54;20444;-80
2023/12/17 09:25:25;;;;;;;9.60;6.33;;;;;;;;;;2613929;54;20436;-80
2023/12/17 09:27:54;;;;;;;11.33;6.67;;;;;;;;;;2613128;46;20540;-80
2023/12/17 09:30:21;;;;;;;8.87;6.97;;;;;;;;;;2613959;54;20417;-80
2023/12/17 09:32:48;;;;;;;10.60;7.63;;;;;;;;;;2614001;54;20403;-81
2023/12/17 09:35:16;;;;;;;9.93;7.20;;;;;;;;;;2614171;54;20434;-81
2023/12/17 09:37:42;;;;;;;12.30;8.10;;;;;;;;;;2614242;54;20425;-80
2023/12/17 09:40:09;;;;;;;15.70;7.60;;;;;;;;;;2615087;54;20984;-81
2023/12/17 09:42:35;;;;;;;14.73;9.00;;;;;;;;;;2613537;54;20418;-81
2023/12/17 09:45:01;;;;;;;12.90;8.27;;;;;;;;;;2614472;39;20855;-80
2023/12/17 09:47:27;;;;;;;18.70;8.60;;;;;;;;;;2613836;54;20443;-80
2023/12/17 09:49:53;;;;;;;17.67;9.70;;;;;;;;;;2614365;54;20437;-82
2023/12/17 09:52:19;;;;;;;19.50;9.23;;;;;;;;;;2613669;54;20439;-80
2023/12/17 09:54:51;;;;;;;15.90;8.63;;;;;;;;;;2614256;54;20727;-81
2023/12/17 09:57:17;;;;;;;12.07;7.57;;;;;;;;;;2614016;39;20866;-81
2023/12/17 09:59:44;;;;;;;15.10;10.30;;;;;;;;;;2613724;54;20843;-83
2023/12/17 10:02:17;;;;;;;16.13;8.20;;;;;;;;;;2612961;54;20429;-82
2023/12/17 10:04:43;;;;;;;15.10;9.07;;;;;;;;;;2613101;54;20903;-80
2023/12/17 10:07:09;;;;;;;14.70;8.03;;;;;;;;;;2614399;54;20504;-79
2023/12/17 10:09:35;;;;;;;21.23;10.80;;;;;;;;;;2613046;54;20521;-81
2023/12/17 10:12:03;;;;;;;17.53;9.87;;;;;;;;;;2613952;54;20470;-81
2023/12/17 10:14:32;;;;;;;18.40;11.70;;;;;;;;;;2613252;54;20960;-80
2023/12/17 10:17:00;;;;;;;17.23;9.73;;;;;;;;;;2613979;54;20460;-80
2023/12/17 10:19:26;;;;;;;17.50;10.43;;;;;;;;;;2614183;54;20421;-80
2023/12/17 10:21:52;;;;;;;18.30;9.73;;;;;;;;;;2614070;47;20425;-82
2023/12/17 10:24:18;;;;;;;12.20;8.13;;;;;;;;;;2613300;39;20725;-80
2023/12/17 10:26:45;;;;;;;17.67;11.00;;;;;;;;;;2613155;39;20974;-79
2023/12/17 10:29:14;;;;;;;16.00;9.17;;;;;;;;;;2613637;54;20428;-81
2023/12/17 10:31:41;;;;;;;18.27;13.23;;;;;;;;;;2612591;54;20474;-82
2023/12/17 10:34:12;;;;;;;15.77;11.10;;;;;;;;;;2614019;54;20949;-82
2023/12/17 10:36:38;;;;;;;19.33;10.90;;;;;;;;;;2613453;54;20407;-76
2023/12/17 10:39:05;;;;;;;18.50;10.93;;;;;;;;;;2610874;54;20425;-75
2023/12/17 10:41:32;;;;;;;18.17;11.30;;;;;;;;;;2612201;54;20408;-75
2023/12/17 10:43:59;;;;;;;23.23;11.57;;;;;;;;;;2611304;47;20417;-77
2023/12/17 10:46:25;;;;;;;22.03;12.50;;;;;;;;;;2612615;54;20815;-76
2023/12/17 10:48:52;;;;;;;13.60;9.00;;;;;;;;;;2612062;54;20429;-76
2023/12/17 10:51:19;;;;;;;25.73;14.17;;;;;;;;;;2612559;54;20525;-76
2023/12/17 10:53:45;;;;;;;20.23;11.97;;;;;;;;;;2611958;54;20426;-75
2023/12/17 10:56:12;;;;;;;13.47;8.07;;;;;;;;;;2611892;54;20436;-75
2023/12/17 10:58:38;;;;;;;21.10;12.30;;;;;;;;;;2611785;39;20798;-76
2023/12/17 11:01:05;;;;;;;14.97;8.07;;;;;;;;;;2612457;54;20446;-75
2023/12/17 11:03:31;;;;;;;21.17;12.33;;;;;;;;;;2611435;54;20441;-75
2023/12/17 11:05:58;;;;;;;21.83;13.97;;;;;;;;;;2611804;54;20424;-76
2023/12/17 11:08:25;;;;;;;20.47;11.23;;;;;;;;;;2612525;54;20467;-76
2023/12/17 11:10:52;;;;;;;14.67;10.07;;;;;;;;;;2611662;54;20418;-74
2023/12/17 11:13:22;;;;;;;21.47;12.60;;;;;;;;;;2612214;46;20462;-76
2023/12/17 11:15:48;;;;;;;20.73;12.67;;;;;;;;;;2611796;54;20400;-74
2023/12/17 11:18:15;;;;;;;15.27;9.67;;;;;;;;;;2612141;39;20822;-74
2023/12/17 11:20:41;;;;;;;18.30;8.73;;;;;;;;;;2612026;48;20493;-74
2023/12/17 11:23:08;;;;;;;23.23;13.30;;;;;;;;;;2612082;39;20804;-76
2023/12/17 11:25:35;;;;;;;16.30;9.97;;;;;;;;;;2612138;47;20425;-75
2023/12/17 11:28:01;;;;;;;19.47;11.90;;;;;;;;;;2611153;54;20422;-76
2023/12/17 11:30:28;;;;;;;13.10;9.60;;;;;;;;;;2611807;54;20440;-76
2023/12/17 11:32:54;;;;;;;19.13;11.47;;;;;;;;;;2612033;31;20917;-76
2023/12/17 11:35:21;;;;;;;21.50;15.40;;;;;;;;;;2612307;39;20572;-76
2023/12/17 11:37:47;;;;;;;23.30;13.70;;;;;;;;;;2611493;47;20450;-77
2023/12/17 11:40:14;;;;;;;20.43;12.43;;;;;;;;;;2610624;47;20462;-76
2023/12/17 11:42:40;;;;;;;31.13;14.17;;;;;;;;;;2611761;39;20679;-74
2023/12/17 11:45:07;;;;;;;24.57;12.70;;;;;;;;;;2609810;54;20436;-76
2023/12/17 11:47:33;;;;;;;14.80;10.50;;;;;;;;;;2611966;39;20504;-78
2023/12/17 11:50:00;;;;;;;19.00;13.30;;;;;;;;;;2613019;54;20416;-79
2023/12/17 11:52:26;;;;;;;19.20;13.00;;;;;;;;;;2612554;47;20487;-80
2023/12/17 11:55:03;;;;;;;21.83;13.80;;;;;;;;;;2611598;54;20468;-80
2023/12/17 11:57:30;;;;;;;22.63;9.67;;;;;;;;;;2612034;39;20707;-80
2023/12/17 11:59:56;;;;;;;14.07;7.10;;;;;;;;;;2613060;39;20815;-80
2023/12/17 12:02:23;;;;;;;17.53;11.13;;;;;;;;;;2612439;47;20437;-81
2023/12/17 12:04:51;;;;;;;19.43;12.60;;;;;;;;;;2611817;54;20458;-81
2023/12/17 12:07:18;;;;;;;22.10;13.90;;;;;;;;;;2612482;54;20415;-80
2023/12/17 12:09:48;;;;;;;16.90;8.90;;;;;;;;;;2612694;54;20492;-81
2023/12/17 12:12:21;;;;;;;13.40;8.20;;;;;;;;;;2612319;54;20524;-80
2023/12/17 12:14:48;;;;;;;17.90;12.50;;;;;;;;;;2612688;54;20531;-81
2023/12/17 12:17:33;;;;;;;18.57;12.73;;;;;;;;;;2611606;54;20468;-72
2023/12/17 12:19:59;;;;;;;19.53;13.30;;;;;;;;;;2611473;54;20420;-71
2023/12/17 12:22:28;;;;;;;17.20;11.60;;;;;;;;;;2611560;54;20428;-71
2023/12/17 12:24:57;;;;;;;19.87;13.53;;;;;;;;;;2610829;54;20523;-71
2023/12/17 12:27:24;;;;;;;16.50;9.40;;;;;;;;;;2609753;54;20413;-71
2023/12/17 12:29:52;;;;;;;19.47;11.50;;;;;;;;;;2609899;54;20418;-71
2023/12/17 12:32:31;;;;;;;16.10;10.97;;;;;;;;;;2609682;39;20790;-71
2023/12/17 12:34:57;;;;;;;20.03;11.03;;;;;;;;;;2609777;54;20504;-71
2023/12/17 12:37:33;;;;;;;17.67;10.83;;;;;;;;;;2609618;46;20515;-72
2023/12/17 12:39:59;;;;;;;13.13;10.30;;;;;;;;;;2610508;54;20417;-71
2023/12/17 12:42:25;;;;;;;14.57;10.47;;;;;;;;;;2610730;54;20771;-72
2023/12/17 12:44:51;;;;;;;16.27;12.20;;;;;;;;;;2610172;46;20439;-71
2023/12/17 12:47:17;;;;;;;16.00;10.30;;;;;;;;;;2610975;54;20470;-72
2023/12/17 12:49:44;;;;;;;15.50;9.20;;;;;;;;;;2610897;54;20891;-71
2023/12/17 12:52:10;;;;;;;14.33;10.57;;;;;;;;;;2611628;54;20968;-72
2023/12/17 12:54:36;;;;;;;10.30;7.13;;;;;;;;;;2611441;54;20432;-71
2023/12/17 12:57:02;;;;;;;13.57;10.93;;;;;;;;;;2610811;54;21284;-74
2023/12/17 12:59:28;;;;;;;14.33;9.57;;;;;;;;;;2610926;54;20527;-75
2023/12/17 13:01:55;;;;;;;18.17;12.60;;;;;;;;;;2610661;54;20438;-74
2023/12/17 13:04:21;;;;;;;14.67;9.87;;;;;;;;;;2612472;54;20420;-75
2023/12/17 13:06:47;;;;;;;14.77;9.50;;;;;;;;;;2613564;47;20431;-74
2023/12/17 13:09:14;;;;;;;14.53;7.73;;;;;;;;;;2612877;54;20961;-74
2023/12/17 13:11:40;;;;;;;12.77;7.60;;;;;;;;;;2612786;54;20432;-73
2023/12/17 13:14:06;;;;;;;20.67;11.40;;;;;;;;;;2612728;54;20431;-74
2023/12/17 13:16:34;;;;;;;17.00;12.03;;;;;;;;;;2612078;54;20428;-74
2023/12/17 13:19:00;;;;;;;15.30;8.90;;;;;;;;;;2613025;31;20932;-73
2023/12/17 13:21:26;;;;;;;18.63;11.13;;;;;;;;;;2611411;54;20437;-75
2023/12/17 13:23:52;;;;;;;15.83;9.80;;;;;;;;;;2610207;54;21046;-75
2023/12/17 13:26:18;;;;;;;10.33;8.93;;;;;;;;;;2610126;54;20981;-76
2023/12/17 13:28:45;;;;;;;9.40;7.50;;;;;;;;;;2612770;54;20413;-77
2023/12/17 13:31:11;;;;;;;11.57;7.63;;;;;;;;;;2612287;54;20401;-77
2023/12/17 13:33:37;;;;;;;14.77;8.67;;;;;;;;;;2611852;54;20544;-77
2023/12/17 13:36:05;;;;;;;14.73;8.40;;;;;;;;;;2612903;54;20907;-78
2023/12/17 13:38:31;;;;;;;11.77;8.87;;;;;;;;;;2611229;54;20422;-77
2023/12/17 13:40:57;;;;;;;9.60;7.50;;;;;;;;;;2610885;54;20425;-77
2023/12/17 13:43:23;;;;;;;15.30;9.43;;;;;;;;;;2611236;54;20451;-77
2023/12/17 13:45:50;;;;;;;14.90;9.60;;;;;;;;;;2612481;31;20869;-75
2023/12/17 13:48:16;;;;;;;12.77;8.43;;;;;;;;;;2611026;54;20423;-78
2023/12/17 13:50:43;;;;;;;11.50;7.37;;;;;;;;;;2612009;54;20552;-77
2023/12/17 13:53:09;;;;;;;14.50;10.13;;;;;;;;;;2612065;47;20439;-78
2023/12/17 13:55:35;;;;;;;14.30;8.97;;;;;;;;;;2613598;39;20831;-77
2023/12/17 13:58:01;;;;;;;17.43;11.33;;;;;;;;;;2610606;54;20420;-78
2023/12/17 14:00:27;;;;;;;23.07;13.13;;;;;;;;;;2610760;47;20438;-78
2023/12/17 14:02:54;;;;;;;21.50;13.00;;;;;;;;;;2612306;54;20398;-77
2023/12/17 14:05:20;;;;;;;13.17;9.30;;;;;;;;;;2612200;46;20429;-78
2023/12/17 14:07:46;;;;;;;16.60;8.67;;;;;;;;;;2613162;54;20405;-76
2023/12/17 14:10:12;;;;;;;13.17;8.90;;;;;;;;;;2613304;39;20868;-74
2023/12/17 14:12:39;;;;;;;15.67;9.50;;;;;;;;;;2611402;39;20792;-76
2023/12/17 14:15:06;;;;;;;13.33;8.93;;;;;;;;;;2611744;54;20432;-75
2023/12/17 14:17:32;;;;;;;13.67;10.30;;;;;;;;;;2608324;54;20469;-75